Time;durP1;ratioP1;P1;durP2;ratioP2;P2;SDS_P1;SDS_P2;PMS_P1;PMS_P2;Temp;Humidity;BMP_temperature;BMP_pressure;BME280_temperature;BME280_humidity;BME280_pressure;Samples;Min_cycle;Max_cycle;Signal;HPM_P1;HPM_P2
2021/12/03 00:01:27;;;;;;;274.87;263.07;;;0.90;99.90;;;;;;4392790;32;20178;-63
2021/12/03 00:03:56;;;;;;;272.13;260.43;;;0.80;99.90;;;;;;4392857;32;20583;-63
2021/12/03 00:06:23;;;;;;;280.77;268.77;;;0.80;99.90;;;;;;4392493;32;20152;-63
2021/12/03 00:08:50;;;;;;;274.63;262.77;;;0.80;99.90;;;;;;4392785;32;20223;-63
2021/12/03 00:11:17;;;;;;;261.07;249.87;;;0.80;99.90;;;;;;4390870;32;20175;-63
2021/12/03 00:13:45;;;;;;;263.67;252.57;;;0.70;99.90;;;;;;4391605;32;20519;-63
2021/12/03 00:16:13;;;;;;;250.80;240.40;;;0.70;99.90;;;;;;4391621;32;20587;-63
2021/12/03 00:18:40;;;;;;;260.07;249.17;;;0.70;99.90;;;;;;4390942;32;20216;-63
2021/12/03 00:21:10;;;;;;;246.60;236.17;;;0.70;99.90;;;;;;4387189;32;20235;-63
2021/12/03 00:23:37;;;;;;;259.80;248.60;;;0.70;99.90;;;;;;4377627;32;20187;-63
2021/12/03 00:26:05;;;;;;;258.83;247.97;;;0.70;99.90;;;;;;4386481;32;20159;-63
2021/12/03 00:28:33;;;;;;;263.90;252.77;;;0.70;99.90;;;;;;4392624;32;20493;-63
2021/12/03 00:31:01;;;;;;;272.57;260.97;;;0.70;99.90;;;;;;4392119;32;20209;-63
2021/12/03 00:33:30;;;;;;;280.77;268.67;;;0.60;99.90;;;;;;4391575;32;20160;-63
2021/12/03 00:35:58;;;;;;;291.67;279.57;;;0.60;99.90;;;;;;4392002;32;20182;-63
2021/12/03 00:38:27;;;;;;;274.87;263.57;;;0.60;99.90;;;;;;4392314;32;20195;-63
2021/12/03 00:40:55;;;;;;;284.13;272.33;;;0.60;99.90;;;;;;4390931;32;20212;-63
2021/12/03 00:43:21;;;;;;;278.97;266.67;;;0.60;99.90;;;;;;4392594;32;20178;-63
2021/12/03 00:45:51;;;;;;;266.13;254.77;;;0.60;99.90;;;;;;4392530;32;20223;-63
2021/12/03 00:48:18;;;;;;;259.00;248.07;;;0.60;99.90;;;;;;4391593;32;20140;-63
2021/12/03 00:50:45;;;;;;;266.27;254.93;;;0.60;99.90;;;;;;4376837;32;20160;-63
2021/12/03 00:53:11;;;;;;;281.57;269.87;;;0.60;99.90;;;;;;4377337;32;20216;-63
2021/12/03 00:55:40;;;;;;;277.77;265.90;;;0.60;99.90;;;;;;4381543;32;20239;-63
2021/12/03 00:58:06;;;;;;;283.33;271.17;;;0.60;99.90;;;;;;4390534;32;20218;-63
2021/12/03 01:00:34;;;;;;;282.40;269.93;;;0.60;99.90;;;;;;4390728;32;20155;-63
2021/12/03 01:03:04;;;;;;;287.43;275.37;;;0.70;99.90;;;;;;4390625;32;20449;-63
2021/12/03 01:05:31;;;;;;;272.10;260.63;;;0.70;99.90;;;;;;4391249;32;20215;-63
2021/12/03 01:07:58;;;;;;;282.20;270.33;;;0.70;99.90;;;;;;4390534;32;20215;-63
2021/12/03 01:10:25;;;;;;;280.90;268.60;;;0.70;99.90;;;;;;4390103;32;20605;-64
2021/12/03 01:12:55;;;;;;;271.90;260.33;;;0.70;99.90;;;;;;4390522;32;20190;-63
2021/12/03 01:15:24;;;;;;;276.63;264.53;;;0.70;99.90;;;;;;4390120;32;20211;-64
2021/12/03 01:17:51;;;;;;;305.67;292.53;;;0.70;99.90;;;;;;4392131;32;20234;-63
2021/12/03 01:20:19;;;;;;;276.27;264.37;;;0.70;99.90;;;;;;4390441;32;20223;-62
2021/12/03 01:22:48;;;;;;;284.80;272.83;;;0.70;99.90;;;;;;4392214;32;20172;-62
2021/12/03 01:25:17;;;;;;;278.97;266.93;;;0.80;99.90;;;;;;4391430;32;20153;-62
2021/12/03 01:27:46;;;;;;;281.27;269.40;;;0.80;99.90;;;;;;4391953;32;20199;-62
2021/12/03 01:30:17;;;;;;;282.90;270.43;;;0.80;99.90;;;;;;4389836;32;20223;-62
2021/12/03 01:32:44;;;;;;;283.77;271.00;;;0.80;99.90;;;;;;4390489;32;20203;-61
2021/12/03 01:35:14;;;;;;;277.17;264.97;;;0.80;99.90;;;;;;4390167;32;20227;-62
2021/12/03 01:37:42;;;;;;;285.80;273.37;;;0.80;99.90;;;;;;4384173;32;20160;-62
2021/12/03 01:40:12;;;;;;;278.83;266.93;;;0.80;99.90;;;;;;4377015;32;20212;-61
2021/12/03 01:42:44;;;;;;;275.57;263.63;;;0.80;99.90;;;;;;4375740;32;20164;-62
2021/12/03 01:45:15;;;;;;;260.40;248.50;;;0.80;99.90;;;;;;4389492;32;20434;-62
2021/12/03 01:47:42;;;;;;;263.33;251.70;;;0.90;99.90;;;;;;4394927;32;20520;-62
2021/12/03 01:50:11;;;;;;;270.87;259.00;;;0.90;99.90;;;;;;4393243;32;20216;-62
2021/12/03 01:52:38;;;;;;;260.53;249.37;;;0.90;99.90;;;;;;4393571;32;20632;-62
2021/12/03 01:55:07;;;;;;;279.33;267.00;;;0.90;99.90;;;;;;4392398;32;20244;-62
2021/12/03 01:57:36;;;;;;;259.53;247.87;;;1.00;99.90;;;;;;4394914;32;20223;-62
2021/12/03 02:00:06;;;;;;;252.77;241.93;;;1.00;99.90;;;;;;4393099;32;20137;-63
2021/12/03 02:02:34;;;;;;;253.17;242.27;;;1.00;99.90;;;;;;4394811;32;20141;-62
2021/12/03 02:05:01;;;;;;;252.90;242.10;;;1.00;99.90;;;;;;4392873;32;20158;-62
2021/12/03 02:07:28;;;;;;;248.83;238.00;;;1.10;99.90;;;;;;4392986;32;20219;-62
2021/12/03 02:09:55;;;;;;;256.80;245.73;;;1.10;99.90;;;;;;4393267;32;20180;-62
2021/12/03 02:12:22;;;;;;;261.97;251.07;;;1.10;99.90;;;;;;4393086;32;20507;-63
2021/12/03 02:14:49;;;;;;;259.83;248.93;;;1.10;99.90;;;;;;4393308;32;20136;-62
2021/12/03 02:17:16;;;;;;;255.20;244.40;;;1.10;99.90;;;;;;4392976;32;20219;-63
2021/12/03 02:19:44;;;;;;;262.10;251.13;;;1.20;99.90;;;;;;4394505;32;20228;-62
2021/12/03 02:22:13;;;;;;;248.80;238.30;;;1.20;99.90;;;;;;4393196;32;20212;-62
2021/12/03 02:24:39;;;;;;;242.60;232.37;;;1.20;99.90;;;;;;4392161;32;20227;-63
2021/12/03 02:27:06;;;;;;;257.50;246.50;;;1.20;99.90;;;;;;4394212;32;20181;-63
2021/12/03 02:29:33;;;;;;;263.47;252.03;;;1.20;99.90;;;;;;4393886;32;20156;-62
2021/12/03 02:32:00;;;;;;;265.70;254.30;;;1.20;99.90;;;;;;4392570;32;20234;-63
2021/12/03 02:34:27;;;;;;;266.40;254.90;;;1.20;99.90;;;;;;4393201;32;20176;-63
2021/12/03 02:36:54;;;;;;;259.63;248.70;;;1.20;99.90;;;;;;4393874;32;20159;-62
2021/12/03 02:39:22;;;;;;;254.00;243.23;;;1.20;99.90;;;;;;4393495;32;20643;-63
2021/12/03 02:41:49;;;;;;;268.17;256.67;;;1.30;99.90;;;;;;4392619;32;20219;-62
2021/12/03 02:44:16;;;;;;;256.87;245.70;;;1.30;99.90;;;;;;4394144;32;20152;-63
2021/12/03 02:46:43;;;;;;;270.60;259.37;;;1.30;99.90;;;;;;4394222;32;20215;-63
2021/12/03 02:49:13;;;;;;;271.83;260.37;;;1.30;99.90;;;;;;4391670;32;20161;-63
2021/12/03 02:51:40;;;;;;;286.70;274.33;;;1.20;99.90;;;;;;4392456;32;20168;-62
2021/12/03 02:54:07;;;;;;;275.13;263.50;;;1.20;99.90;;;;;;4391694;32;20239;-62
2021/12/03 02:56:36;;;;;;;275.70;264.33;;;1.30;99.90;;;;;;4392065;32;20174;-62
2021/12/03 02:59:03;;;;;;;268.57;257.50;;;1.30;99.90;;;;;;4392368;32;20144;-62
2021/12/03 03:01:30;;;;;;;262.57;251.77;;;1.20;99.90;;;;;;4393673;32;20621;-62
2021/12/03 03:03:57;;;;;;;261.97;250.57;;;1.30;99.90;;;;;;4393946;32;20663;-62
2021/12/03 03:06:24;;;;;;;271.70;260.07;;;1.30;99.90;;;;;;4393314;32;20491;-63
2021/12/03 03:08:51;;;;;;;263.53;252.60;;;1.30;99.90;;;;;;4392584;32;20154;-62
2021/12/03 03:11:18;;;;;;;269.50;258.40;;;1.30;99.90;;;;;;4392090;32;20148;-63
2021/12/03 03:13:46;;;;;;;273.03;261.70;;;1.30;99.90;;;;;;4393702;32;20199;-63
2021/12/03 03:16:17;;;;;;;274.83;263.47;;;1.30;99.90;;;;;;4393726;32;20639;-62
2021/12/03 03:18:44;;;;;;;278.10;266.43;;;1.20;99.90;;;;;;4392032;32;20216;-62
2021/12/03 03:21:12;;;;;;;261.47;250.57;;;1.30;99.90;;;;;;4392009;32;20166;-62
2021/12/03 03:23:40;;;;;;;266.37;255.03;;;1.30;99.90;;;;;;4391258;32;20231;-63
2021/12/03 03:26:07;;;;;;;261.63;250.83;;;1.30;99.90;;;;;;4393669;32;20191;-63
2021/12/03 03:28:35;;;;;;;277.17;265.73;;;1.30;99.90;;;;;;4392684;32;20219;-62
2021/12/03 03:31:04;;;;;;;264.07;252.87;;;1.30;99.90;;;;;;4393563;32;20172;-62
2021/12/03 03:33:31;;;;;;;259.40;248.67;;;1.30;99.90;;;;;;4393414;32;20508;-62
2021/12/03 03:35:59;;;;;;;269.97;258.40;;;1.30;99.90;;;;;;4391813;32;20168;-62
2021/12/03 03:38:26;;;;;;;261.63;250.63;;;1.30;99.90;;;;;;4393448;32;20423;-62
2021/12/03 03:40:54;;;;;;;247.67;237.23;;;1.30;99.90;;;;;;4392657;32;20633;-62
2021/12/03 03:43:21;;;;;;;239.60;229.43;;;1.40;99.90;;;;;;4393357;32;20211;-62
2021/12/03 03:45:51;;;;;;;234.93;224.73;;;1.40;99.90;;;;;;4391430;32;20535;-62
2021/12/03 03:48:19;;;;;;;258.80;247.30;;;1.40;99.90;;;;;;4391912;32;20554;-63
2021/12/03 03:50:46;;;;;;;267.47;255.70;;;1.40;99.90;;;;;;4390282;32;20222;-62
2021/12/03 03:53:13;;;;;;;273.23;261.20;;;1.50;99.90;;;;;;4391532;32;20136;-62
2021/12/03 03:55:40;;;;;;;273.03;261.33;;;1.50;99.90;;;;;;4391359;32;20165;-63
2021/12/03 03:58:07;;;;;;;279.57;266.93;;;1.50;99.90;;;;;;4392125;32;20195;-63
2021/12/03 04:00:41;;;;;;;260.43;248.83;;;1.60;99.90;;;;;;4391456;32;20215;-63
2021/12/03 04:03:09;;;;;;;275.87;263.70;;;1.50;99.90;;;;;;4391309;32;20179;-63
2021/12/03 04:05:37;;;;;;;282.37;269.43;;;1.50;99.90;;;;;;4390757;32;20254;-63
2021/12/03 04:08:04;;;;;;;277.87;265.20;;;1.40;99.90;;;;;;4392990;32;20564;-63
2021/12/03 04:10:32;;;;;;;277.20;264.33;;;1.50;99.90;;;;;;4391776;32;20215;-63
2021/12/03 04:12:59;;;;;;;274.77;261.97;;;1.50;99.90;;;;;;4391144;32;20211;-63
2021/12/03 04:15:26;;;;;;;267.53;255.30;;;1.40;99.90;;;;;;4392454;32;20144;-62
2021/12/03 04:17:53;;;;;;;271.23;258.50;;;1.40;99.90;;;;;;4392748;32;20171;-62
2021/12/03 04:20:22;;;;;;;266.07;253.97;;;1.40;99.90;;;;;;4392508;32;20226;-62
2021/12/03 04:22:50;;;;;;;265.70;253.47;;;1.40;99.90;;;;;;4392779;32;20212;-62
2021/12/03 04:25:21;;;;;;;290.23;276.23;;;1.50;99.90;;;;;;4391812;32;20195;-63
2021/12/03 04:27:51;;;;;;;286.03;272.40;;;1.60;99.90;;;;;;4391560;32;20200;-62
2021/12/03 04:30:22;;;;;;;277.73;264.60;;;1.60;99.90;;;;;;4390862;32;20206;-62
2021/12/03 04:32:49;;;;;;;280.47;267.27;;;1.60;99.90;;;;;;4390527;32;20206;-63
2021/12/03 04:35:17;;;;;;;276.80;263.87;;;1.60;99.90;;;;;;4392200;32;20156;-63
2021/12/03 04:37:43;;;;;;;267.53;254.80;;;1.60;99.90;;;;;;4392399;32;20216;-62
2021/12/03 04:40:17;;;;;;;265.63;252.87;;;1.60;99.90;;;;;;4392572;32;20243;-63
2021/12/03 04:42:44;;;;;;;274.90;261.70;;;1.50;99.90;;;;;;4392601;32;20575;-62
2021/12/03 04:45:13;;;;;;;271.80;258.90;;;1.50;99.90;;;;;;4390818;32;20223;-63
2021/12/03 04:47:40;;;;;;;280.47;266.60;;;1.60;99.90;;;;;;4390346;32;20228;-63
2021/12/03 04:50:10;;;;;;;276.97;263.17;;;1.60;99.90;;;;;;4392352;32;20686;-62
2021/12/03 04:52:37;;;;;;;292.67;278.90;;;1.60;99.90;;;;;;4390540;32;20578;-62
2021/12/03 04:55:04;;;;;;;294.90;280.70;;;1.60;99.90;;;;;;4391344;32;20179;-63
2021/12/03 04:57:33;;;;;;;276.43;263.13;;;1.70;99.90;;;;;;4392261;32;20527;-62
2021/12/03 04:59:59;;;;;;;299.13;284.60;;;1.70;99.90;;;;;;4392327;32;20150;-62
2021/12/03 05:02:27;;;;;;;264.07;251.17;;;1.70;99.90;;;;;;4390182;32;20147;-62
2021/12/03 05:04:56;;;;;;;251.57;239.10;;;1.80;99.90;;;;;;4390808;32;20136;-63
2021/12/03 05:07:31;;;;;;;272.77;259.23;;;1.80;99.90;;;;;;4390277;32;20145;-63
2021/12/03 05:09:58;;;;;;;275.20;261.90;;;1.80;99.90;;;;;;4391952;32;20499;-63
2021/12/03 05:12:26;;;;;;;301.13;286.67;;;1.90;99.90;;;;;;4390545;32;20246;-62
2021/12/03 05:14:54;;;;;;;288.23;274.47;;;1.90;99.90;;;;;;4390235;32;20572;-62
2021/12/03 05:17:21;;;;;;;283.47;269.80;;;2.00;99.90;;;;;;4391240;32;20490;-62
2021/12/03 05:19:48;;;;;;;294.03;280.07;;;2.10;99.90;;;;;;4390489;32;20216;-62
2021/12/03 05:22:16;;;;;;;245.77;233.93;;;2.00;99.90;;;;;;4390576;32;20168;-62
2021/12/03 05:24:45;;;;;;;263.87;250.93;;;2.10;99.90;;;;;;4390532;32;20134;-62
2021/12/03 05:27:13;;;;;;;265.47;252.47;;;2.30;99.90;;;;;;4391020;32;20184;-62
2021/12/03 05:29:39;;;;;;;256.33;243.13;;;2.30;99.90;;;;;;4390351;32;20160;-62
2021/12/03 05:32:08;;;;;;;250.03;237.97;;;2.30;99.90;;;;;;4390241;32;20248;-62
2021/12/03 05:34:35;;;;;;;254.73;242.23;;;2.30;99.90;;;;;;4392077;32;20171;-62
2021/12/03 05:37:04;;;;;;;247.67;235.50;;;2.40;99.90;;;;;;4392153;32;20154;-62
2021/12/03 05:39:31;;;;;;;237.50;225.53;;;2.50;99.90;;;;;;4390350;32;20156;-62
2021/12/03 05:41:58;;;;;;;217.07;206.03;;;2.50;99.90;;;;;;4391241;32;20171;-62
2021/12/03 05:44:25;;;;;;;267.87;254.77;;;2.60;99.90;;;;;;4391647;32;20167;-63
2021/12/03 05:46:52;;;;;;;296.20;282.43;;;2.60;99.90;;;;;;4391279;32;20231;-63
2021/12/03 05:49:20;;;;;;;255.37;243.27;;;2.60;99.90;;;;;;4391996;32;20190;-62
2021/12/03 05:51:47;;;;;;;277.47;263.77;;;2.60;99.90;;;;;;4391819;32;20232;-62
2021/12/03 05:54:13;;;;;;;275.47;262.33;;;2.70;99.90;;;;;;4391341;32;20266;-63
2021/12/03 05:56:42;;;;;;;277.27;263.87;;;2.60;99.90;;;;;;4388648;32;20169;-63
2021/12/03 05:59:09;;;;;;;274.57;261.17;;;2.60;99.90;;;;;;4390062;32;20167;-62
2021/12/03 06:01:38;;;;;;;273.17;259.50;;;2.60;99.90;;;;;;4388725;32;20184;-63
2021/12/03 06:04:05;;;;;;;262.90;249.63;;;2.60;99.90;;;;;;4391608;32;20207;-63
2021/12/03 06:06:33;;;;;;;260.73;247.47;;;2.50;99.90;;;;;;4389606;32;20229;-63
2021/12/03 06:09:00;;;;;;;269.43;256.43;;;2.60;99.90;;;;;;4385556;32;20219;-63
2021/12/03 06:11:27;;;;;;;263.80;251.03;;;2.60;99.90;;;;;;4380013;32;20240;-62
2021/12/03 06:13:54;;;;;;;261.30;248.33;;;2.60;99.90;;;;;;4394892;32;20241;-63
2021/12/03 06:16:21;;;;;;;254.50;241.27;;;2.50;99.90;;;;;;4388991;32;20160;-62
2021/12/03 06:18:48;;;;;;;259.70;246.27;;;2.60;99.90;;;;;;4366879;32;20251;-62
2021/12/03 06:21:15;;;;;;;262.73;249.00;;;2.60;99.90;;;;;;4375735;32;20235;-61
2021/12/03 06:23:44;;;;;;;263.17;250.20;;;2.60;99.90;;;;;;4376458;32;20290;-61
2021/12/03 06:26:11;;;;;;;255.97;243.43;;;2.60;99.90;;;;;;4377808;32;20152;-62
2021/12/03 06:28:40;;;;;;;267.10;254.10;;;2.70;99.90;;;;;;4382981;32;20222;-62
2021/12/03 06:31:08;;;;;;;289.40;274.80;;;2.60;99.90;;;;;;4381902;32;20229;-63
2021/12/03 06:33:35;;;;;;;252.30;239.73;;;2.70;99.90;;;;;;4381613;32;20220;-64
2021/12/03 06:36:02;;;;;;;250.10;237.60;;;2.70;99.90;;;;;;4386510;32;20473;-62
2021/12/03 06:38:31;;;;;;;245.40;232.87;;;2.70;99.90;;;;;;4389667;32;20561;-62
2021/12/03 06:40:59;;;;;;;247.77;234.87;;;2.70;99.90;;;;;;4390244;32;20237;-62
2021/12/03 06:43:26;;;;;;;253.43;240.83;;;2.70;99.90;;;;;;4390495;32;20167;-61
2021/12/03 06:45:53;;;;;;;268.77;255.03;;;2.80;99.90;;;;;;4391231;32;20236;-61
2021/12/03 06:48:20;;;;;;;278.27;264.43;;;2.70;99.90;;;;;;4390826;32;20613;-61
2021/12/03 06:50:49;;;;;;;272.47;257.37;;;2.70;99.90;;;;;;4383572;32;20230;-61
2021/12/03 06:53:17;;;;;;;270.90;257.87;;;2.70;99.90;;;;;;4385657;32;20273;-61
2021/12/03 06:55:52;;;;;;;255.93;242.43;;;2.70;99.90;;;;;;4385587;32;20182;-61
2021/12/03 06:58:24;;;;;;;249.90;237.57;;;2.80;99.90;;;;;;4381902;32;20224;-61
2021/12/03 07:00:53;;;;;;;255.03;241.73;;;2.80;99.90;;;;;;4383738;32;20352;-62
2021/12/03 07:03:20;;;;;;;246.43;234.87;;;2.90;99.90;;;;;;4384796;32;20305;-62
2021/12/03 07:05:47;;;;;;;255.87;242.80;;;2.90;99.90;;;;;;4385688;32;20223;-61
2021/12/03 07:08:14;;;;;;;248.80;236.73;;;2.90;99.90;;;;;;4392681;32;20153;-64
2021/12/03 07:10:41;;;;;;;245.87;233.10;;;3.00;99.90;;;;;;4386356;32;20145;-62
2021/12/03 07:13:08;;;;;;;240.00;227.77;;;3.00;99.90;;;;;;4387006;32;20180;-61
2021/12/03 07:15:37;;;;;;;241.50;228.60;;;3.10;99.90;;;;;;4392045;32;20168;-62
2021/12/03 07:18:04;;;;;;;230.83;219.53;;;3.10;99.90;;;;;;4387933;32;20164;-64
2021/12/03 07:20:31;;;;;;;238.30;225.40;;;3.10;99.90;;;;;;4385448;32;20222;-62
2021/12/03 07:22:58;;;;;;;292.87;278.03;;;3.10;99.90;;;;;;4383017;32;20235;-62
2021/12/03 07:25:25;;;;;;;264.40;251.47;;;3.10;99.90;;;;;;4385474;32;20162;-62
2021/12/03 07:27:52;;;;;;;281.60;266.87;;;3.10;99.90;;;;;;4392052;32;20547;-62
2021/12/03 07:30:20;;;;;;;285.13;271.20;;;3.10;99.90;;;;;;4388460;32;20263;-62
2021/12/03 07:32:49;;;;;;;271.87;258.53;;;3.20;99.90;;;;;;4392020;32;20203;-62
2021/12/03 07:35:16;;;;;;;253.80;240.90;;;3.20;99.90;;;;;;4391635;32;20159;-62
2021/12/03 07:37:43;;;;;;;224.93;213.37;;;3.10;99.90;;;;;;4393351;32;20144;-63
2021/12/03 07:40:12;;;;;;;257.47;244.47;;;3.20;99.90;;;;;;4393262;32;20138;-62
2021/12/03 07:42:39;;;;;;;267.87;254.73;;;3.10;99.90;;;;;;4391586;32;20229;-62
2021/12/03 07:45:08;;;;;;;258.63;246.30;;;3.10;99.90;;;;;;4393207;32;20480;-61
2021/12/03 07:47:36;;;;;;;262.20;249.43;;;3.10;99.90;;;;;;4392484;32;20136;-62
2021/12/03 07:50:05;;;;;;;255.90;243.33;;;3.10;99.90;;;;;;4391615;32;20185;-63
2021/12/03 07:52:33;;;;;;;244.33;232.47;;;3.00;99.90;;;;;;4393248;32;20167;-62
2021/12/03 07:55:00;;;;;;;243.50;231.73;;;3.00;99.90;;;;;;4392705;32;20190;-62
2021/12/03 07:57:27;;;;;;;234.17;222.80;;;3.10;99.90;;;;;;4393248;32;20159;-62
2021/12/03 07:59:53;;;;;;;246.47;234.60;;;3.10;99.90;;;;;;4391632;32;20163;-62
2021/12/03 08:02:20;;;;;;;259.33;247.57;;;3.10;99.90;;;;;;4391346;32;20517;-62
2021/12/03 08:04:47;;;;;;;248.13;236.30;;;3.10;99.90;;;;;;4393210;32;20584;-64
2021/12/03 08:07:15;;;;;;;258.73;247.00;;;3.10;99.90;;;;;;4393010;32;20537;-61
2021/12/03 08:09:42;;;;;;;272.17;259.27;;;3.10;99.90;;;;;;4393105;32;20140;-63
2021/12/03 08:12:10;;;;;;;228.93;217.83;;;3.20;99.90;;;;;;4391234;32;20263;-61
2021/12/03 08:14:37;;;;;;;240.13;228.63;;;3.20;99.90;;;;;;4383215;32;20246;-62
2021/12/03 08:17:04;;;;;;;252.73;240.83;;;3.20;99.90;;;;;;4384916;32;20160;-61
2021/12/03 08:19:31;;;;;;;243.50;231.93;;;3.10;99.90;;;;;;4382358;32;20153;-61
2021/12/03 08:21:58;;;;;;;253.57;240.57;;;3.20;99.90;;;;;;4382375;32;20187;-62
2021/12/03 08:24:26;;;;;;;252.07;240.20;;;3.20;99.90;;;;;;4383460;32;20153;-62
2021/12/03 08:26:53;;;;;;;270.83;257.40;;;3.20;99.90;;;;;;4385967;32;20647;-63
2021/12/03 08:29:20;;;;;;;270.03;256.83;;;3.20;99.90;;;;;;4388256;32;20168;-62
2021/12/03 08:31:47;;;;;;;257.67;244.87;;;3.20;99.90;;;;;;4385605;32;20153;-62
2021/12/03 08:34:14;;;;;;;267.37;254.17;;;3.20;99.90;;;;;;4381084;32;20242;-62
2021/12/03 08:36:41;;;;;;;272.87;258.67;;;3.20;99.90;;;;;;4387179;32;20153;-62
2021/12/03 08:39:08;;;;;;;267.20;253.97;;;3.30;99.90;;;;;;4383504;32;20179;-62
2021/12/03 08:41:36;;;;;;;274.10;260.33;;;3.30;99.90;;;;;;4382419;32;20170;-61
2021/12/03 08:44:03;;;;;;;254.30;240.70;;;3.40;99.90;;;;;;4385505;32;20140;-62
2021/12/03 08:46:32;;;;;;;247.03;233.20;;;3.60;99.90;;;;;;4384856;32;20171;-62
2021/12/03 08:49:07;;;;;;;267.57;254.80;;;3.60;99.90;;;;;;4386212;32;20167;-62
2021/12/03 08:51:47;;;;;;;262.87;249.67;;;3.60;99.90;;;;;;4386885;32;20148;-62
2021/12/03 08:57:00;;;;;;;286.60;272.80;;;3.80;99.90;;;;;;4386898;32;20703;-61
2021/12/03 08:59:27;;;;;;;274.47;261.20;;;3.70;99.90;;;;;;4390499;32;20152;-62
2021/12/03 09:01:54;;;;;;;291.57;277.50;;;3.80;99.90;;;;;;4384935;32;20207;-64
2021/12/03 09:04:20;;;;;;;275.37;261.80;;;3.90;99.90;;;;;;4385418;32;20178;-64
2021/12/03 09:06:47;;;;;;;279.73;266.33;;;3.90;99.90;;;;;;4385059;32;20544;-64
2021/12/03 09:09:14;;;;;;;294.63;280.93;;;3.90;99.90;;;;;;4387007;32;20514;-63
2021/12/03 09:11:42;;;;;;;300.73;286.60;;;4.00;99.90;;;;;;4385052;32;20186;-64
2021/12/03 09:14:16;;;;;;;281.77;267.93;;;4.00;99.90;;;;;;4389529;32;20686;-62
2021/12/03 09:16:45;;;;;;;280.70;267.73;;;4.00;99.90;;;;;;4385532;32;20224;-63
2021/12/03 09:19:18;;;;;;;263.50;250.43;;;3.90;99.90;;;;;;4385349;32;20216;-62
2021/12/03 09:21:46;;;;;;;269.07;255.93;;;4.00;99.90;;;;;;4385407;32;20172;-62
2021/12/03 09:24:14;;;;;;;269.40;256.90;;;4.00;99.90;;;;;;4384056;32;20581;-62
2021/12/03 09:26:42;;;;;;;265.53;253.00;;;4.10;99.90;;;;;;4386253;32;20234;-62
2021/12/03 09:29:14;;;;;;;258.80;246.63;;;4.20;99.90;;;;;;4382244;32;20173;-63
2021/12/03 09:31:43;;;;;;;261.43;248.77;;;4.30;99.90;;;;;;4385140;32;20518;-63
2021/12/03 09:34:14;;;;;;;263.10;250.83;;;4.50;99.90;;;;;;4386184;32;20192;-62
2021/12/03 09:36:42;;;;;;;268.00;255.30;;;4.60;99.90;;;;;;4385216;32;20178;-62
2021/12/03 09:39:14;;;;;;;283.33;270.23;;;4.60;99.90;;;;;;4385694;32;20481;-62
2021/12/03 09:41:40;;;;;;;286.03;273.33;;;4.60;99.90;;;;;;4385692;32;20196;-64
2021/12/03 09:44:07;;;;;;;292.10;278.83;;;4.70;99.90;;;;;;4383868;32;20159;-64
2021/12/03 09:46:36;;;;;;;308.53;294.73;;;4.70;99.90;;;;;;4385016;32;20173;-62
2021/12/03 09:49:23;;;;;;;319.93;306.00;;;4.80;99.90;;;;;;4385449;32;20140;-64
2021/12/03 09:52:02;;;;;;;320.10;305.87;;;4.80;99.90;;;;;;4388425;32;20235;-61
2021/12/03 09:54:37;;;;;;;328.70;314.33;;;4.90;99.90;;;;;;4382625;32;20170;-63
2021/12/03 09:57:08;;;;;;;326.33;311.83;;;4.70;99.90;;;;;;4386087;32;20231;-64
2021/12/03 10:13:32;;;;;;;330.07;315.27;;;4.70;99.90;;;;;;4387387;32;20185;-63
2021/12/03 10:16:07;;;;;;;324.93;311.13;;;4.80;99.90;;;;;;4387778;32;20160;-63
2021/12/03 10:18:47;;;;;;;305.27;291.97;;;4.80;99.90;;;;;;4387741;32;20166;-62
2021/12/03 10:21:34;;;;;;;313.40;299.77;;;4.70;99.90;;;;;;4389411;32;20213;-63
2021/12/03 10:27:33;;;;;;;320.73;306.30;;;4.50;99.90;;;;;;4334719;33;20229;-62
2021/12/03 10:30:37;;;;;;;306.60;292.80;;;4.40;99.90;;;;;;4337361;33;20243;-62
2021/12/03 10:38:59;;;;;;;308.63;295.03;;;4.40;99.90;;;;;;4336668;33;20195;-64
2021/12/03 10:41:35;;;;;;;304.50;290.77;;;4.40;99.90;;;;;;4336986;33;20184;-63
2021/12/03 10:44:11;;;;;;;296.67;283.57;;;4.30;99.90;;;;;;4335463;33;20165;-63
2021/12/03 10:46:49;;;;;;;311.30;297.70;;;4.20;99.90;;;;;;4334000;33;20544;-62
2021/12/03 10:49:44;;;;;;;314.30;300.77;;;4.10;99.90;;;;;;4338808;33;20160;-62
2021/12/03 10:52:33;;;;;;;302.30;288.83;;;4.10;99.90;;;;;;4337280;33;20585;-63
2021/12/03 10:55:37;;;;;;;321.57;307.30;;;4.10;99.90;;;;;;4333668;33;20797;-62
2021/12/03 10:58:25;;;;;;;295.47;282.47;;;4.10;99.90;;;;;;4334905;33;20166;-62
2021/12/03 11:01:39;;;;;;;291.30;279.10;;;4.20;99.90;;;;;;4337704;33;20178;-63
2021/12/03 11:07:34;;;;;;;306.77;293.13;;;4.40;99.90;;;;;;4330960;33;20154;-63
2021/12/03 11:13:17;;;;;;;292.47;279.57;;;4.50;99.90;;;;;;4329463;33;20190;-62
2021/12/03 13:10:56;;;;;;;260.53;249.63;;;5.40;99.90;;;;;;4442308;32;20311;-63
2021/12/03 13:56:53;;;;;;;264.73;253.53;;;4.80;99.90;;;;;;4386505;32;20193;-62
2021/12/03 14:08:20;;;;;;;270.40;258.83;;;4.70;99.90;;;;;;4392576;32;20184;-62
2021/12/03 14:41:45;;;;;;;244.83;234.57;;;4.80;99.90;;;;;;4266640;33;20239;-63
2021/12/03 14:44:18;;;;;;;231.90;222.10;;;4.70;99.90;;;;;;4271249;33;20205;-64
2021/12/03 14:47:09;;;;;;;213.63;204.60;;;4.70;99.90;;;;;;4285164;33;20196;-63
2021/12/03 14:50:24;;;;;;;224.17;214.70;;;4.60;99.90;;;;;;4284954;33;20170;-64
2021/12/03 14:55:37;;;;;;;199.20;190.33;;;4.50;99.90;;;;;;4286102;33;20179;-63
2021/12/03 14:58:08;;;;;;;214.00;204.60;;;4.50;99.90;;;;;;4284890;33;20209;-63
2021/12/03 15:00:48;;;;;;;211.80;202.23;;;4.50;99.90;;;;;;4284755;33;20162;-63
2021/12/03 15:08:52;;;;;;;205.70;196.70;;;4.50;99.90;;;;;;4328119;33;20256;-63
2021/12/03 15:22:42;;;;;;;202.43;193.30;;;4.40;99.90;;;;;;4372248;32;20228;-63
2021/12/03 15:25:14;;;;;;;194.00;185.07;;;4.40;99.90;;;;;;4370528;32;20145;-63
2021/12/03 15:28:02;;;;;;;188.70;179.87;;;4.50;99.90;;;;;;4369776;32;20612;-63
2021/12/03 15:33:14;;;;;;;195.40;186.50;;;4.50;99.90;;;;;;4315664;33;20540;-63
2021/12/03 15:35:52;;;;;;;205.37;195.47;;;4.50;99.90;;;;;;4314387;33;20247;-63
2021/12/03 15:38:46;;;;;;;204.07;194.43;;;4.50;99.90;;;;;;4312993;33;20217;-63
2021/12/03 16:03:40;;;;;;;207.37;197.57;;;4.60;99.90;;;;;;4346824;32;20211;-63
2021/12/03 16:08:52;;;;;;;201.77;192.03;;;4.60;99.90;;;;;;4344889;33;20167;-62
2021/12/03 16:11:27;;;;;;;209.27;199.10;;;4.60;99.90;;;;;;4380670;32;20243;-64
2021/12/03 16:14:07;;;;;;;198.47;188.80;;;4.50;99.90;;;;;;4389533;32;20160;-62
2021/12/03 16:22:29;;;;;;;209.53;199.73;;;4.70;99.90;;;;;;4327624;33;20172;-65
2021/12/03 16:25:20;;;;;;;203.20;193.40;;;4.50;99.90;;;;;;4327983;33;20165;-63
2021/12/03 16:44:45;;;;;;;231.70;220.73;;;4.50;99.90;;;;;;4283680;33;20625;-63
2021/12/03 16:47:29;;;;;;;230.80;219.50;;;4.50;99.90;;;;;;4282999;33;20252;-63
2021/12/03 16:52:44;;;;;;;244.20;232.30;;;4.50;99.90;;;;;;4287983;33;20214;-64
2021/12/03 16:55:12;;;;;;;235.90;224.23;;;4.60;99.90;;;;;;4341864;33;20164;-64
2021/12/03 16:57:40;;;;;;;235.00;223.13;;;4.60;99.90;;;;;;4350441;32;20165;-63
2021/12/03 17:00:19;;;;;;;237.83;226.47;;;4.60;99.90;;;;;;4351404;33;20694;-62
2021/12/03 17:02:54;;;;;;;235.77;224.60;;;4.60;99.90;;;;;;4345865;33;20215;-63
2021/12/03 17:14:05;;;;;;;206.43;196.23;;;4.80;99.90;;;;;;4390527;32;20173;-63
2021/12/03 17:16:58;;;;;;;232.77;221.10;;;4.60;99.90;;;;;;4390179;32;20235;-65
2021/12/03 17:19:57;;;;;;;216.57;205.90;;;4.70;99.90;;;;;;4393760;32;20612;-64
2021/12/03 17:47:58;;;;;;;217.83;206.83;;;4.70;99.90;;;;;;4315802;33;20455;-63
2021/12/03 17:50:41;;;;;;;223.33;212.03;;;4.70;99.90;;;;;;4311798;33;20197;-62
2021/12/03 17:58:41;;;;;;;207.73;197.60;;;4.70;99.90;;;;;;4283011;33;20260;-62
2021/12/03 18:01:14;;;;;;;205.10;194.80;;;4.70;99.90;;;;;;4280757;33;20158;-62
2021/12/03 18:03:48;;;;;;;189.57;179.90;;;4.80;99.90;;;;;;4290771;33;20177;-63
2021/12/03 18:09:13;;;;;;;201.80;191.37;;;4.80;99.90;;;;;;4299211;33;20166;-63
2021/12/03 18:17:48;;;;;;;219.87;208.77;;;4.80;99.90;;;;;;4272338;33;20158;-62
2021/12/03 18:51:14;;;;;;;214.47;204.17;;;4.80;99.90;;;;;;4233198;33;20219;-62
2021/12/03 18:56:31;;;;;;;224.20;213.57;;;4.80;99.90;;;;;;4268146;33;20159;-64
2021/12/03 18:59:02;;;;;;;227.07;216.20;;;4.80;99.90;;;;;;4300788;33;20172;-64